• Join FlightAware (Why Join?)
  • Login
  • US Flag 
03:39AM EST


 

Airport Tracker/Info


-or-


 

Live Flight TrackerFlight Track Log ✈ UAL6148 ✈ 22-Apr-2013 ✈ KORD - KLNK

Flight Track Log - Related Links

Times and Time Zones

All times are in EDT time to prevent confusion due to time zone crossing. See the UAL6148 flight status page for this flight to view local times or setup timezone preferences in your user account.

Time Position Orientation Groundspeed Altitude Reporting Facility
EDT Latitude Longitude Course Direction KTS MPH feet Rate Location/Type
06:56PM 41.9333 -87.9333 261° West 194 223 2,700  Level Chicago TRACON
06:57PM 41.8833 -87.9833 217° Southwest 241 277 4,700 2,400 Climbing Chicago TRACON
06:58PM 41.8494 -88.0567 238° Southwest 253 291 7,700 2,820 Climbing Chicago Center
06:59PM 41.8514 -88.1578 272° West 274 315 10,500 2,040 Climbing Chicago Center
07:00PM 41.8508 -88.2950 270° West 309 356 11,900 1,440 Climbing Chicago Center
07:01PM 41.8506 -88.4264 270° West 351 404 13,500 1,500 Climbing Chicago Center
07:02PM 41.8935 -88.6647 261° West  Level FlightAware Approximate
07:02PM 41.8506 -88.5600 270° West 362 417 15,100  Level Chicago Center
07:03PM 41.8492 -88.6950 269° West 364 419 16,700 1,440 Climbing Chicago Center
07:04PM 41.8486 -88.8303 270° West 366 421 18,100 1,440 Climbing Chicago Center
07:05PM 41.8494 -88.9967 270° West 373 429 19,700 1,320 Climbing Chicago Center
07:06PM 41.8492 -89.1369 270° West 378 435 20,900 1,440 Climbing Chicago Center
07:07PM 41.8231 -89.2722 256° West 382 440 22,700 1,740 Climbing Chicago Center
07:08PM 41.7992 -89.4025 256° West 371 427 24,600 1,800 Climbing Chicago Center
07:10PM 41.7728 -89.5286 254° West 360 414 26,500 1,740 Climbing Chicago Center
07:11PM 41.7447 -89.6531 253° West 349 402 28,200 1,560 Climbing Chicago Center
07:12PM 41.7131 -89.8019 254° West 348 400 29,700 1,380 Climbing Chicago Center
07:13PM 41.6989 -89.9308 262° West 353 406 31,100 1,080 Climbing Chicago Center
07:14PM 41.6864 -90.0583 263° West 350 403 32,000 420 Climbing Chicago Center
07:15PM 41.6736 -90.1961 263° West 370 426 32,000 420 Level Chicago Center
07:16PM 41.6581 -90.3456 262° West 407 468 32,900 480 Climbing Chicago Center
07:17PM 41.6447 -90.4883 263° West 391 450 33,000  Climbing Chicago Center
07:18PM 41.6292 -90.6481 263° West 389 448 33,000  Level Chicago Center
07:19PM 41.6136 -90.7919 262° West 393 452 33,000  Level Chicago Center
07:20PM 41.5994 -90.9361 263° West 394 453 33,000  Level Chicago Center
07:21PM 41.5850 -91.0806 262° West 395 455 33,000  Level Chicago Center
07:22PM 41.5669 -91.2528 262° West 394 453 33,000  Level Chicago Center
07:23PM 41.5519 -91.3939 262° West 389 448 33,000  Level Chicago Center
07:25PM 41.5222 -91.6742 262° West 383 441 33,000 300 Level Chicago Center
07:26PM 41.5069 -91.8147 262° West 385 443 34,000 480 Climbing Chicago Center
07:27PM 41.4914 -91.9533 262° West 382 440 34,000  Level Chicago Center
07:28PM 41.4725 -92.1236 262° West 388 447 34,000  Level Chicago Center
07:29PM 41.4558 -92.2672 261° West 394 453 34,000  Level Chicago Center
07:30PM 41.4411 -92.3997 262° West 392 451 34,000  Level Chicago Center
07:31PM 41.4192 -92.5661 260° West 387 445 34,000  Level Chicago Center
07:32PM 41.4047 -92.7097 262° West 391 450 34,000  Level Chicago Center
07:33PM 41.3875 -92.8492 261° West 388 447 34,000  Level Chicago Center
07:34PM 41.3703 -92.9897 261° West 386 444 34,000  Level Minneapolis Center
07:35PM 41.3536 -93.1303 261° West 389 448 34,000  Level Minneapolis Center
07:36PM 41.3333 -93.2994 261° West 390 449 34,000  Level Minneapolis Center
07:37PM 41.3153 -93.4367 260° West 385 443 34,000  Level Minneapolis Center
07:38PM 41.2975 -93.5792 261° West 390 449 34,000  Level Minneapolis Center
07:39PM 41.2792 -93.7208 260° West 392 451 34,000  Level Minneapolis Center
07:40PM 41.2600 -93.8636 260° West 393 452 34,000  Level Minneapolis Center
07:41PM 41.2403 -94.0306 261° West 391 450 34,000  Level Minneapolis Center
07:43PM 41.2222 -94.1708 260° West 390 449 34,000  Level Minneapolis Center
07:44PM 41.2022 -94.3203 260° West 396 456 34,000  Level Minneapolis Center
07:45PM 41.1839 -94.4633 260° West 396 456 34,000  Level Minneapolis Center
07:46PM 41.1644 -94.6047 260° West 391 450 34,000 -480 Level Minneapolis Center
07:47PM 41.1447 -94.7472 260° West 393 452 33,100 -1,380 Descending Minneapolis Center
07:48PM 41.1253 -94.8886 260° West 390 449 31,200 -2,280 Descending Minneapolis Center
07:49PM 41.1014 -95.0672 260° West 405 466 28,500 -2,460 Descending Minneapolis Center
07:50PM 41.0786 -95.2253 259° West 426 490 26,200 -2,340 Descending Minneapolis Center
07:51PM 41.0614 -95.3850 262° West 432 497 23,700 -2,460 Descending Minneapolis Center
07:51PM 41.0489 -95.4725 259° West 393 452 22,200 -2,340 Descending Minneapolis Center
07:52PM 41.0367 -95.5236 252° West 405 466 21,300 -2,460 Descending Minneapolis Center
07:52PM 41.0400 -95.6172 273° West 353 406 19,500 -2,460 Descending Minneapolis Center
07:53PM 41.0358 -95.6558 262° West 368 423 18,800 -2,160 Descending Minneapolis Center
07:53PM 41.0358 -95.7394 270° West 348 400 17,600 -1,860 Descending Minneapolis Center
07:54PM 41.0317 -95.7858 263° West 354 407 16,900 -1,980 Descending Minneapolis Center
07:54PM 41.0300 -95.8728 269° West 361 415 15,600 -2,040 Descending Minneapolis Center
07:55PM 41.0281 -95.9200 267° West 359 413 14,800 -1,620 Descending Minneapolis Center
07:55PM 41.0006 -95.9978 245° Southwest 340 391 14,000 -1,200 Descending Minneapolis Center
07:56PM 40.9867 -96.0347 244° Southwest 344 396 13,600 -1,500 Descending Minneapolis Center
07:56PM 40.9547 -96.0967 236° Southwest 310 357 12,500 -2,040 Descending Minneapolis Center
07:57PM 40.9328 -96.1525 243° Southwest 314 361 11,500 -1,800 Descending Minneapolis Center
07:57PM 40.9086 -96.1903 230° Southwest 310 357 10,700 -1,380 Descending Minneapolis Center
07:58PM 40.8883 -96.2453 244° Southwest 304 350 10,100 -1,320 Descending Minneapolis Center
07:58PM 40.8678 -96.2719 224° Southwest 254 292 9,400 -1,680 Descending Minneapolis Center
07:59PM 40.8514 -96.3247 248° West 269 310 8,400 -1,980 Descending Minneapolis Center
07:59PM 40.8272 -96.3589 227° Southwest 253 291 7,400 -1,800 Descending Minneapolis Center
08:00PM 40.8167 -96.4042 253° West 257 296 6,600 -1,740 Descending Minneapolis Center
08:01PM 40.7903 -96.4400 226° Southwest 244 281 5,500 -1,680 Descending Minneapolis Center
08:01PM 40.7828 -96.4811 256° West 250 288 4,900 -1,320 Descending Minneapolis Center
08:02PM 40.7508 -96.5131 217° Southwest 248 285 4,200 -900 Descending Minneapolis Center
08:02PM 40.7417 -96.5539 254° West 248 285 4,000 -300 Descending Minneapolis Center
08:03PM 40.7031 -96.5867 213° Southwest 263 303 3,900  Descending Minneapolis Center
08:03PM 40.6933 -96.6269 252° West 254 292 4,000 60 Climbing Minneapolis Center
08:04PM 40.6514 -96.6661 215° Southwest 268 308 4,000 -120 Level Minneapolis Center
08:04PM 40.6469 -96.7036 261° West 262 302 3,900 -720 Descending Minneapolis Center
08:05PM 40.6394 -96.7469 257° West 225 259 3,300 -780 Descending Minneapolis Center
08:05PM 40.6747 -96.7742 330° Northwest 225 259 3,100 -300 Descending Minneapolis Center
08:06PM 40.6839 -96.7561 56° Northeast 167 192 3,000 -120 Descending Minneapolis Center
08:06PM 40.7200 -96.7631 352° North 186 214 3,000  Level Minneapolis Center
08:07PM 40.7278 -96.7544 40° Northeast 157 181 3,000 -420 Level Minneapolis Center
08:07PM 40.7606 -96.7631 349° North 164 189 2,600 -660 Descending Minneapolis Center
08:08PM 40.7611 -96.7539 85° East 107 123 2,300 -600 Descending Minneapolis Center
08:08PM 40.7903 -96.7631 347° North 136 157 2,000 -600 Descending Minneapolis Center
08:09PM 40.7906 -96.7564 87° East 116 133 1,800 -240 Descending Minneapolis Center
08:09PM 40.8189 -96.7639 349° North 128 147 1,800  Level Minneapolis Center